Lugano Airport

Airport
ICAO code: 
LSZA
IATA Code: 
LUG
Summary
ICAO Region: 
EUR
Territory: 
Location: 
Agno, Ticino
Serving: 
Lugano
Elevation: 
915 ft
Coordinates: 
Aerial View: 
46° 0' 15.39" N, 8° 54' 38.081" E
Airport CFIT: 
Altimeter Temperature Error Correction
Metar
Observation
LSZA 060320Z AUTO VRB03KT 9999 NCD M02/M04 Q1006
Station
Lugano
Date/Time
2021-12-06 03:20:00
Wind speed
03 kts
Lowest cloud amount
no clouds detected
Temperature
-2°C
Dew point
-4°C
Humidity
86%
QNH
1006 hPa
Weather condition
n/a

Lugano Airport is a regional airport located 4 km west of the Swiss city of Lugano, in the municipalities of Agno, Bioggio and Muzzano. It lies closer to the village of Agno than to Lugano itself, and is sometimes known as Lugano-Agno.

Climatology

Humid “subtropical” climate (Köppen climate classification Cfa)

Runways

Designator Length Width Surface Rops
1/19 1350 30 ASP Yes/Yes
Airport map: 
Aerial View: 

Accidents and Serious Incidents at or in the vicinity of LSZA

SKYbrary Partners:

Safety knowledge contributed by: